Éder Cunha

Recruteur en chef - Atletico Goianiense
25 Févr 2027
Jeudi
Processus

Personnalité

Adaptabilité (1) Ambition (3) Controverse (18) Loyauté (2) Pression (2) Professionnalisme (16) Sportivité (14) Tempérament (1)

Profil

Style d'entraînement Démocratique
Diplôme National A
Détermination 4
Gestion des joueurs 11
Motivation 4
Discipline 5
Satisfaction professionnelle
50%
Fatigue
0%
Rôle Recruteur en chef
Salaire 66.7K p/s
Contrat 14.03.2030

Performance

Comportement Normal
Efficacité de l'entraînement
18%
Développement des joueurs
30%
Prévention des blessures
15%
Mise en place tactique
40%

Événements récents

A participé à une réunion de recrutement maintenant
A recommandé une cible de transfert maintenant
A recommandé une cible de transfert maintenant
A participé à une réunion de recrutement maintenant
A participé à une réunion de recrutement maintenant
A participé à une réunion de recrutement maintenant
A participé à une réunion de recrutement 7j
A participé à une réunion de recrutement 7j

Suivi en cours

121
Joueur Club Statut Capacité Confiance Observé Dernière observation Dernier vote
Pape Diong Westerlo Actif 121 / 135 40% 1 16.01.2027 -
Eliás Montiel Pachuca Actif 147 / 129 40% 1 14.01.2027 -
Riley Owen Trento Actif 81 / 103 40% 1 11.01.2027 -
Matteo Pérez Vinlöf Dinamo Zagreb Actif 107 / 134 40% 1 11.01.2027 -
Zaïd BafdilI Sporting CP Actif 108 / 86 40% 1 10.01.2027 -
Afonso Assis Moreirense Actif 118 / 102 40% 1 10.01.2027 -
Nikolay Bondarenko Irkutsk Actif 52 / 93 40% 1 09.01.2027 -
Sergi Domínguez Dinamo Zagreb Actif 146 / 127 40% 1 09.01.2027 -
Vasco Santos Oliveirense Actif 69 / 86 40% 1 07.01.2027 -
Leandro Martins Benfica Actif 112 / 110 40% 1 05.01.2027 -
Joaquin Seys Club Brugge Actif 129 / 117 40% 1 05.01.2027 -
Joel McGregor Swindon Town Actif 103 / 113 40% 1 04.01.2027 -
Hamish Douglas Grimsby Town Actif 103 / 115 40% 1 04.01.2027 -
José Paradela Cruz Azul Actif 137 / 125 40% 1 22.12.2026 -
David Ozoh Derby County Actif 104 / 114 40% 1 14.12.2026 -
Luís Gomes Porto Actif 82 / 88 40% 1 14.12.2026 -
Fredi Bahia Actif 107 / 99 48% 1 07.12.2026 -
Makan Aïko Tondela Actif 138 / 109 40% 1 04.12.2026 -
Richard Gonzalez Chamois Niortais Actif 133 / 130 40% 1 04.12.2026 -
Wallyson ABC Perdu 90 / 103 48% 1 02.12.2026 -
Andreas Trimmel Red Bull Salzburg Actif 131 / 131 60% 1 01.12.2026 Approuver
Amar Memić Casa Pia Négociation 127 / 128 62% 1 01.12.2026 Approuver
Fotis Ioannidis Rio Ave Actif 149 / 143 40% 2 30.11.2026 -
Oli McBurnie Hull City Actif 143 / 141 40% 3 30.11.2026 Observer
Tiago Leite Felgueiras Actif 105 / 93 40% 2 29.11.2026 -
Max Svensson Penafiel Actif 89 / 95 40% 3 29.11.2026 -
Pau Víctor AVS Actif 152 / 141 40% 2 28.11.2026 Plus d'infos
Korede Osundina Casa Pia Actif 98 / 104 40% 1 28.11.2026 -
Patrick Cutrone Monza Actif 142 / 141 40% 1 27.11.2026 Plus d'infos
Petar Musa Adana Demirspor Actif 139 / 143 40% 1 27.11.2026 Plus d'infos
Juninho Pumas UNAM Actif 144 / 113 40% 2 26.11.2026 Plus d'infos
Marcos Paulo Juventude Actif 108 / 132 40% 1 26.11.2026 Plus d'infos
Paulinho Toluca Actif 158 / 148 40% 2 25.11.2026 -
Pablo Fernández Leiria Actif 127 / 105 40% 5 25.11.2026 -
Gabriel Barbosa Farense Actif 96 / 92 40% 2 23.11.2026 -
Chuchu Ramírez Nacional Actif 125 / 132 40% 3 18.11.2026 Observer
Adnan Courtois KV Oostende Actif 147 / 135 40% 1 18.11.2026 -
Yousef Salech Cardiff City Actif 129 / 128 40% 1 17.11.2026 Plus d'infos
Henrique Araújo Casa Pia Actif 127 / 122 40% 2 16.11.2026 Plus d'infos
Mohammed Bouldini Académico de Viseu Actif 115 / 133 40% 4 16.11.2026 Observer
Juan Muñoz Leiria Actif 132 / 115 40% 5 15.11.2026 Observer
André Lacximicant Estoril Praia Actif 94 / 108 40% 3 11.11.2026 -
Tomané Tondela Actif 106 / 107 40% 1 08.11.2026 -
Rui Pedro Felgueiras Actif 106 / 125 40% 1 05.11.2026 -
Marcelo Estigarribia Unión de Santa Fe Actif 124 / 129 40% 1 03.11.2026 -
Elijah Adebayo Luton Town Actif 124 / 136 40% 1 03.11.2026 -
Taiwo Awoniyi Coventry City Actif 134 / 140 40% 2 02.11.2026 -
Héctor Hernández Gil Vicente Actif 128 / 139 40% 1 02.11.2026 -
Juan Dinenno Pumas UNAM Actif 116 / 119 40% 1 01.11.2026 -
Tamble Monteiro Rio Ave Actif 132 / 108 40% 1 01.11.2026 -
David Zapata Sheffield Wednesday Actif 162 / 151 40% 3 31.10.2026 -
Pablo Ruan Nacional Actif 119 / 120 40% 1 30.10.2026 -
Mika Lusitânia Lourosa Actif 107 / 107 40% 2 29.10.2026 -
Dom Ballard Leyton Orient Actif 108 / 128 40% 1 29.10.2026 -
Maxwell El Masry Actif 91 / 95 40% 1 28.10.2026 -
André Silva Tondela Actif 146 / 133 40% 1 27.10.2026 -
Nicolás Cordero Aldosivi Actif 128 / 112 40% 1 26.10.2026 -
Martín Tejón Maritimo Actif 105 / 122 40% 2 24.10.2026 -
Heung-Min Son Los Angeles Football Club Actif 150 / 146 40% 2 24.10.2026 -
Gustavo Torres Leixões Actif 134 / 128 40% 1 22.10.2026 -
Vinícius Lopes Santa Clara Actif 131 / 133 40% 2 21.10.2026 -
Stephen Odey Ittihad Actif 132 / 93 40% 1 19.10.2026 -
Antoine Griezmann Orlando City Actif 152 / 155 40% 2 15.10.2026 -
Renato Kayser Vitória Actif 115 / 125 40% 1 15.10.2026 -
Andrés Rentería Jaguares Actif 109 / 119 40% 3 13.10.2026 -
Figueiredo Alverca Actif 118 / 124 40% 1 13.10.2026 -
Alfonso Trezza Arouca Actif 123 / 129 40% 2 12.10.2026 -
Romelu Castagne KV Oostende Actif 151 / 144 40% 3 09.10.2026 -
Kévin Denkey FC Cincinnati Actif 129 / 129 40% 1 09.10.2026 -
Ferreirinha Sport Recife Actif 137 / 130 40% 1 08.10.2026 -
Germán Berterame Inter Miami CF Actif 130 / 128 40% 3 05.10.2026 -
Yassin Fortuné Vizela Actif 111 / 89 40% 1 05.10.2026 -
Negueba Mirassol Actif 120 / 128 40% 2 01.10.2026 -
Jordan Morris Seattle Sounders Actif 149 / 121 40% 2 01.10.2026 -
Richard Koné Queens Park Rangers Actif 110 / 112 40% 1 29.09.2026 -
Andrey Estupiñán Millonarios Actif 124 / 127 40% 1 28.09.2026 -
Emiliano Rigoni Belgrano Actif 131 / 128 40% 1 28.09.2026 -
Gabriel Jesus Barcelona Actif 134 / 148 40% 1 27.09.2026 -
Sergio González Racing Actif 121 / 113 40% 1 26.09.2026 -
Dawda Camara Alverca Actif 121 / 121 40% 1 26.09.2026 -
Jalen Blesa Rio Ave Actif 99 / 110 40% 2 23.09.2026 -
Kévin Zohi Torreense Actif 126 / 123 40% 1 23.09.2026 -
Jhonatan Candia Barracas Central Actif 126 / 131 40% 1 20.09.2026 -
Jorge Obregón Deportivo Pasto Actif 111 / 116 40% 1 20.09.2026 -
Andre Green AVS Actif 127 / 106 40% 1 19.09.2026 -
Jair Silva Leiria Actif 105 / 117 40% 2 17.09.2026 -
Rodrigo Marquês Oliveirense Actif 96 / 78 40% 1 15.09.2026 -
Mourad Tijuana Actif 140 / 119 40% 1 14.09.2026 -
Aune Heggebø West Bromwich Albion Actif 148 / 119 40% 1 13.09.2026 -
Myrto Uzuni Austin FC Actif 134 / 121 40% 1 10.09.2026 -
Manuel Ospina Cortulua Actif 138 / 121 40% 1 08.09.2026 -
Facundo Krüger Temperley Actif 103 / 103 40% 1 06.09.2026 -
Rafael Navarro St. Louis CITY SC Actif 115 / 120 40% 2 04.09.2026 -
Daniel Bahia Zlin Actif 114 / 103 40% 1 04.09.2026 -
Justo Giani Universidad Catolica Actif 126 / 119 40% 1 02.09.2026 -
Bertrand Traoré Sunderland Actif 130 / 141 40% 1 01.09.2026 -
Jonathan Calleri Sport Recife Actif 143 / 139 40% 1 31.08.2026 -
Gabriel Taliari Juventude Actif 107 / 115 40% 1 28.08.2026 -
Daniel Valencia America de Cali Actif 114 / 110 40% 1 25.08.2026 -
Agdon Blackpool Actif 102 / 116 40% 1 24.08.2026 -
João Lima Tondela Actif 89 / 87 40% 1 24.08.2026 -
Alípio NEC Actif 98 / 100 40% 1 21.08.2026 -
Yanis Begraoui Estoril Praia Actif 117 / 121 40% 1 21.08.2026 -
José Melro Maritimo Actif 105 / 96 40% 1 20.08.2026 -
Bryan Róchez Chaves Actif 85 / 118 40% 1 20.08.2026 -
Jay Stansfield Birmingham Actif 143 / 143 40% 1 19.08.2026 -
Maximiliano Gómez Nacional Actif 112 / 113 40% 1 18.08.2026 -
Welinton Torrão Santa Clara Actif 90 / 112 40% 1 18.08.2026 -
Zé Carlos Gil Vicente Actif 135 / 124 40% 1 16.08.2026 -
Igor Neves Angers SCO Actif 127 / 117 40% 1 12.08.2026 -
Valery Académico de Viseu Actif 136 / 109 40% 1 12.08.2026 -
Roni AVS Actif 116 / 131 40% 1 12.08.2026 -
Duvan Rangel La Equidad Actif 130 / 127 40% 1 11.08.2026 -
Luis Quintero Torreense Actif 117 / 126 40% 1 08.08.2026 -
Ricard Sánchez Estoril Praia Actif 139 / 129 40% 1 08.08.2026 -
Ejike Opara Vitoria Guimaraes Actif 124 / 104 40% 1 08.08.2026 -
Alexander Aravena Portland Timbers Actif 133 / 123 40% 1 07.08.2026 -
Diogo Travassos Braga Actif 128 / 135 40% 1 02.08.2026 -
Márcio Mendes Pandurii Actif 123 / 117 40% 1 02.08.2026 -
Gil Dias Famalicao Actif 110 / 111 40% 1 01.08.2026 -
Víctor Gómez Braga Actif 121 / 145 40% 1 01.08.2026 -